CST,Max TemperatureF,Mean TemperatureF,Min TemperatureF,Max Dew PointF,MeanDew PointF,Min DewpointF,Max Humidity, Mean Humidity, Min Humidity, Max Sea Level PressureIn, Mean Sea Level PressureIn, Min Sea Level PressureIn, Max VisibilityMiles, Mean VisibilityMiles, Min VisibilityMiles, Max Wind SpeedMPH, Mean Wind SpeedMPH, Max Gust SpeedMPH,PrecipitationIn, CloudCover, Events, WindDirDegrees
2012-11-1,93,40,30,33,27,19,91,64,29,29.86,29.83,29.80,10,10,10,18,8,21,0.00,4,,286
2012-11-2,93,40,34,38,35,30,97,83,52,30.14,30.01,29.86,10,10,7,16,5,21,0.00,7,,347
2012-11-3,93,36,29,33,31,29,98,84,64,30.20,30.17,30.13,10,10,7,9,5,,0.00,3,,33
2012-11-4,93,36,28,33,31,27,99,84,63,30.21,30.19,30.16,10,10,3,8,1,,0.00,6,,347
2012-11-5,45,32,19,31,26,19,98,80,48,30.20,30.16,30.11,10,8,0,8,2,,0.00,0,,61
2012-11-6,45,32,19,38,29,19,98,81,52,30.12,29.99,29.90,10,7,2,9,3,,0.00,4,,166
2012-11-7,49,39,28,38,34,28,99,83,53,30.15,30.03,29.90,10,6,0,8,4,,0.00,4,,44
2012-11-8,44,35,26,42,33,26,99,92,69,30.22,30.17,30.13,10,4,0,10,2,,0.00,7,,199
2012-11-9,58,44,31,44,39,31,99,73,51,30.15,30.07,30.00,10,8,2,15,6,20,0.00,4,,160
2012-11-10,70,58,47,50,44,40,75,60,45,30.05,30.01,29.96,10,10,10,20,10,25,0.00,3,,176
2012-11-11,69,60,50,54,46,43,97,60,45,30.03,29.95,29.85,10,10,2,34,17,46,0.00,4,,189
2012-11-12,50,40,30,50,29,23,98,78,62,30.33,30.14,29.90,10,9,3,23,13,31,0.00,6,,260
2012-11-13,37,30,24,26,20,17,87,66,44,30.51,30.45,30.33,10,10,10,14,7,20,0.00,1,,266
2012-11-14,41,32,22,26,24,20,95,77,50,30.55,30.48,30.40,10,9,5,10,3,,0.00,0,,137
2012-11-15,45,32,19,31,25,18,97,83,50,30.40,30.37,30.33,10,6,2,5,0,,0.00,0,,180
2012-11-16,52,36,20,33,26,20,96,76,36,30.48,30.44,30.38,10,7,2,4,1,,0.00,0,,129
2012-11-17,54,38,21,34,28,20,96,74,39,30.56,30.50,30.47,10,7,2,8,3,,0.00,0,,121
2012-11-18,56,42,29,32,30,26,94,65,31,30.47,30.41,30.35,10,9,5,9,5,,0.00,0,,129
2012-11-19,57,46,34,37,33,28,78,62,39,30.34,30.25,30.13,10,10,10,13,6,,0.00,2,,164
2012-11-20,54,44,34,45,39,34,99,76,58,30.17,30.11,30.07,10,6,0,8,5,,0.00,8,,282
2012-11-21,55,44,32,51,40,32,100,95,71,30.26,30.19,30.14,5,2,0,9,2,,0.00,4,,184
2012-11-22,61,50,40,50,43,40,98,77,49,30.13,29.99,29.82,10,7,2,24,13,30,0.00,2,,193
2012-11-23,53,41,29,50,25,17,91,71,55,30.17,30.02,29.83,10,10,10,26,18,34,0.00,6,,276
2012-11-24,30,25,20,22,19,17,86,70,60,30.23,30.16,30.03,10,10,10,15,10,20,0.00,6,,248
2012-11-25,43,35,27,29,24,22,88,70,45,30.03,29.92,29.86,10,10,10,14,8,20,0.00,3,,234
2012-11-26,38,30,23,29,24,21,93,75,55,30.31,30.19,30.04,10,10,10,13,5,,0.00,4,,303
2012-11-27,36,28,19,26,19,13,95,67,41,30.39,30.31,30.26,10,10,10,10,5,,0.00,3,,254
2012-11-28,43,32,22,22,19,16,81,61,38,30.37,30.32,30.26,10,10,10,13,7,17,0.00,2,,239
2012-11-29,50,38,26,31,27,21,84,66,45,30.31,30.21,30.12,10,10,7,17,8,24,0.00,2,,186
2012-11-30,54,42,30,33,30,27,92,67,43,30.14,30.10,30.05,10,10,5,9,5,,0.00,3,,168